Time;durP1;ratioP1;P1;durP2;ratioP2;P2;SDS_P1;SDS_P2;PMS_P1;PMS_P2;Temp;Humidity;BMP_temperature;BMP_pressure;BME280_temperature;BME280_humidity;BME280_pressure;Samples;Min_cycle;Max_cycle;Signal;HPM_P1;HPM_P2
2023/05/17 00:01:13;;;;;;;3.47;0.90;;;;;;;;;;5010169;28;20017;-70
2023/05/17 00:03:38;;;;;;;5.83;0.90;;;;;;;;;;5009138;28;20068;-70
2023/05/17 00:06:03;;;;;;;5.93;1.08;;;;;;;;;;5010001;28;20110;-69
2023/05/17 00:08:29;;;;;;;7.57;1.20;;;;;;;;;;5010275;28;20057;-66
2023/05/17 00:10:54;;;;;;;4.90;1.25;;;;;;;;;;5010080;28;20049;-70
2023/05/17 00:13:19;;;;;;;3.80;1.20;;;;;;;;;;5009960;28;20041;-69
2023/05/17 00:15:44;;;;;;;4.13;0.90;;;;;;;;;;5011025;28;20029;-68
2023/05/17 00:18:09;;;;;;;9.82;1.38;;;;;;;;;;5016374;28;20439;-70
2023/05/17 00:20:35;;;;;;;6.10;1.15;;;;;;;;;;5015379;28;20034;-69
2023/05/17 00:23:00;;;;;;;6.05;0.98;;;;;;;;;;5014406;28;20377;-69
2023/05/17 00:25:25;;;;;;;4.37;1.17;;;;;;;;;;5013643;28;20069;-69
2023/05/17 00:27:50;;;;;;;4.88;0.80;;;;;;;;;;5013622;28;20525;-68
2023/05/17 00:30:16;;;;;;;4.50;1.10;;;;;;;;;;5011127;28;20019;-69
2023/05/17 00:32:41;;;;;;;4.97;1.00;;;;;;;;;;5012441;28;20034;-70
2023/05/17 00:35:06;;;;;;;3.90;0.90;;;;;;;;;;5012756;28;20018;-68
2023/05/17 00:37:31;;;;;;;4.87;1.23;;;;;;;;;;5013265;28;20029;-69
2023/05/17 00:39:56;;;;;;;4.10;1.00;;;;;;;;;;5013018;28;20056;-69
2023/05/17 00:42:21;;;;;;;4.22;0.90;;;;;;;;;;5012635;28;20420;-70
2023/05/17 00:44:47;;;;;;;6.10;1.00;;;;;;;;;;5012258;28;21305;-67
2023/05/17 00:47:12;;;;;;;7.80;1.00;;;;;;;;;;5012668;28;20056;-68
2023/05/17 00:49:37;;;;;;;4.32;1.08;;;;;;;;;;5012879;28;20029;-68
2023/05/17 00:52:02;;;;;;;2.40;0.73;;;;;;;;;;5011680;28;20026;-69
2023/05/17 00:54:29;;;;;;;4.50;0.90;;;;;;;;;;5011230;28;20026;-68
2023/05/17 00:56:56;;;;;;;3.78;0.80;;;;;;;;;;5007494;28;20434;-69
2023/05/17 00:59:22;;;;;;;4.63;1.02;;;;;;;;;;5012804;28;20038;-65
2023/05/17 01:01:47;;;;;;;4.55;1.10;;;;;;;;;;5010013;28;20390;-69
2023/05/17 01:04:12;;;;;;;6.43;1.02;;;;;;;;;;5012598;28;20140;-68
2023/05/17 01:06:37;;;;;;;5.63;1.10;;;;;;;;;;5013037;28;20389;-67
2023/05/17 01:09:03;;;;;;;5.77;1.07;;;;;;;;;;5012294;28;20137;-68
2023/05/17 01:11:34;;;;;;;3.35;0.75;;;;;;;;;;5011922;28;20030;-68
2023/05/17 01:14:21;;;;;;;5.68;1.00;;;;;;;;;;5013823;28;20018;-67
2023/05/17 01:16:48;;;;;;;4.10;0.95;;;;;;;;;;5011971;28;20029;-68
2023/05/17 01:19:28;;;;;;;4.60;1.10;;;;;;;;;;5010743;28;20061;-68
2023/05/17 01:22:12;;;;;;;3.80;1.10;;;;;;;;;;5006593;28;20034;-68
2023/05/17 01:24:58;;;;;;;7.07;1.23;;;;;;;;;;5013635;28;20026;-69
2023/05/17 01:27:24;;;;;;;5.45;0.95;;;;;;;;;;5012698;28;20474;-70
2023/05/17 01:29:50;;;;;;;3.83;0.80;;;;;;;;;;5010493;28;20083;-69
2023/05/17 01:32:15;;;;;;;4.47;1.10;;;;;;;;;;5007925;28;20533;-69
2023/05/17 01:34:40;;;;;;;3.30;1.00;;;;;;;;;;5011797;28;20022;-68
2023/05/17 01:37:05;;;;;;;4.70;1.00;;;;;;;;;;5012224;28;20053;-70
2023/05/17 01:39:31;;;;;;;4.65;0.93;;;;;;;;;;5011187;28;20033;-70
2023/05/17 01:42:06;;;;;;;4.97;1.05;;;;;;;;;;5010403;28;20041;-69
2023/05/17 01:44:36;;;;;;;4.13;1.00;;;;;;;;;;5010817;28;20124;-69
2023/05/17 01:47:10;;;;;;;4.07;0.80;;;;;;;;;;5011560;28;20018;-69
2023/05/17 01:49:37;;;;;;;6.25;1.00;;;;;;;;;;5012857;28;20033;-69
2023/05/17 01:52:02;;;;;;;4.53;1.02;;;;;;;;;;5012320;28;20014;-69
2023/05/17 01:54:30;;;;;;;5.68;1.40;;;;;;;;;;5012785;28;20018;-70
2023/05/17 01:56:56;;;;;;;5.03;0.90;;;;;;;;;;5004542;28;20018;-69
2023/05/17 01:59:24;;;;;;;4.70;1.00;;;;;;;;;;5012557;28;20022;-69
2023/05/17 02:01:51;;;;;;;4.30;0.90;;;;;;;;;;5009112;28;20144;-67
2023/05/17 02:04:17;;;;;;;4.57;0.98;;;;;;;;;;5012656;28;20033;-71
2023/05/17 02:06:42;;;;;;;4.13;1.10;;;;;;;;;;5012812;28;20018;-69
2023/05/17 02:09:07;;;;;;;5.33;1.00;;;;;;;;;;5012493;28;20036;-69
2023/05/17 02:11:32;;;;;;;4.63;1.10;;;;;;;;;;5012043;28;20033;-69
2023/05/17 02:13:57;;;;;;;4.97;0.95;;;;;;;;;;5010120;28;20011;-69
2023/05/17 02:16:22;;;;;;;5.43;1.10;;;;;;;;;;5007797;28;20104;-67
2023/05/17 02:18:48;;;;;;;6.78;1.10;;;;;;;;;;5010858;28;20030;-70
2023/05/17 02:21:13;;;;;;;4.97;1.00;;;;;;;;;;5011190;28;20034;-69
2023/05/17 02:23:38;;;;;;;3.53;0.90;;;;;;;;;;5012608;28;20032;-69
2023/05/17 02:26:03;;;;;;;5.60;1.00;;;;;;;;;;5006875;28;20034;-68
2023/05/17 02:28:28;;;;;;;4.57;1.03;;;;;;;;;;5010315;28;20026;-67
2023/05/17 02:30:55;;;;;;;5.53;1.48;;;;;;;;;;5005475;28;20071;-69
2023/05/17 02:33:20;;;;;;;5.20;1.40;;;;;;;;;;5006260;28;20117;-69
2023/05/17 02:35:47;;;;;;;6.75;1.25;;;;;;;;;;5010867;28;20490;-69
2023/05/17 02:38:12;;;;;;;5.95;1.00;;;;;;;;;;5011322;28;20400;-69
2023/05/17 02:40:39;;;;;;;5.63;1.20;;;;;;;;;;5011294;28;20025;-69
2023/05/17 02:43:05;;;;;;;5.43;1.00;;;;;;;;;;5009996;28;20111;-69
2023/05/17 02:45:30;;;;;;;5.53;1.20;;;;;;;;;;5011513;28;20084;-67
2023/05/17 02:47:55;;;;;;;3.90;1.10;;;;;;;;;;5012083;28;20036;-68
2023/05/17 02:50:20;;;;;;;5.85;1.38;;;;;;;;;;5010096;28;20026;-69
2023/05/17 02:52:45;;;;;;;5.53;1.10;;;;;;;;;;5006093;28;20027;-69
2023/05/17 02:55:10;;;;;;;8.57;1.50;;;;;;;;;;5009817;28;20076;-70
2023/05/17 02:57:35;;;;;;;8.33;1.40;;;;;;;;;;5010906;28;20022;-67
2023/05/17 03:00:01;;;;;;;6.72;1.40;;;;;;;;;;5010039;28;20021;-69
2023/05/17 03:02:26;;;;;;;7.97;1.65;;;;;;;;;;5010948;28;20018;-69
2023/05/17 03:04:51;;;;;;;8.13;1.40;;;;;;;;;;5008530;28;20025;-69
2023/05/17 03:07:16;;;;;;;6.60;1.30;;;;;;;;;;5010212;28;20026;-69
2023/05/17 03:09:41;;;;;;;5.05;1.20;;;;;;;;;;5009967;28;20049;-70
2023/05/17 03:12:07;;;;;;;6.73;1.40;;;;;;;;;;5015002;28;20014;-69
2023/05/17 03:14:32;;;;;;;5.90;1.30;;;;;;;;;;5011851;28;20030;-69
2023/05/17 03:16:57;;;;;;;5.37;1.27;;;;;;;;;;5009286;28;20048;-69
2023/05/17 03:19:24;;;;;;;5.57;1.40;;;;;;;;;;5009421;28;20030;-69
2023/05/17 03:21:49;;;;;;;;;;;;;;;;;;5005940;28;20104;-69
2023/05/17 03:24:14;;;;;;;5.70;1.20;;;;;;;;;;5011046;28;19960;-70
2023/05/17 03:26:40;;;;;;;5.20;1.20;;;;;;;;;;5008148;28;20028;-69
2023/05/17 03:29:05;;;;;;;5.07;1.38;;;;;;;;;;5008584;28;20065;-69
2023/05/17 03:31:30;;;;;;;6.10;1.40;;;;;;;;;;5007951;28;20034;-69
2023/05/17 03:33:55;;;;;;;4.43;1.30;;;;;;;;;;5009348;28;20025;-68
2023/05/17 03:36:20;;;;;;;5.50;1.30;;;;;;;;;;5008695;28;20029;-67
2023/05/17 03:38:45;;;;;;;5.60;1.48;;;;;;;;;;5010019;28;20026;-69
2023/05/17 03:41:11;;;;;;;8.35;1.40;;;;;;;;;;5006667;28;20021;-70
2023/05/17 03:43:36;;;;;;;6.00;1.40;;;;;;;;;;5009316;28;20108;-70
2023/05/17 03:46:01;;;;;;;4.53;1.40;;;;;;;;;;5010027;28;20053;-70
2023/05/17 03:48:26;;;;;;;6.40;1.57;;;;;;;;;;5009600;28;20025;-71
2023/05/17 03:50:51;;;;;;;7.88;1.88;;;;;;;;;;5007575;28;20473;-70
2023/05/17 03:53:16;;;;;;;5.57;1.50;;;;;;;;;;5009892;28;20022;-69
2023/05/17 03:55:42;;;;;;;4.75;1.58;;;;;;;;;;5008045;28;20064;-67
2023/05/17 03:58:07;;;;;;;6.30;1.55;;;;;;;;;;5008194;28;20044;-68
2023/05/17 04:00:32;;;;;;;5.83;1.40;;;;;;;;;;5007598;28;20021;-69
2023/05/17 04:02:57;;;;;;;9.47;1.80;;;;;;;;;;5008893;28;20474;-67
2023/05/17 04:05:22;;;;;;;5.83;1.60;;;;;;;;;;5008179;28;20030;-69
2023/05/17 04:07:48;;;;;;;6.43;1.50;;;;;;;;;;5010387;28;20021;-69
2023/05/17 04:10:13;;;;;;;7.63;2.00;;;;;;;;;;5009593;28;20488;-70
2023/05/17 04:12:38;;;;;;;7.63;1.80;;;;;;;;;;5007118;28;20531;-69
2023/05/17 04:15:03;;;;;;;4.60;1.63;;;;;;;;;;5004575;28;20257;-67
2023/05/17 04:17:29;;;;;;;5.53;1.52;;;;;;;;;;5001729;28;20057;-70
2023/05/17 04:19:54;;;;;;;4.50;1.40;;;;;;;;;;5008773;28;20026;-70
2023/05/17 04:22:19;;;;;;;5.60;1.50;;;;;;;;;;5009248;28;21023;-69
2023/05/17 04:24:44;;;;;;;6.70;1.73;;;;;;;;;;5009359;28;20524;-68
2023/05/17 04:27:10;;;;;;;6.00;1.67;;;;;;;;;;5008031;28;20105;-69
2023/05/17 04:29:35;;;;;;;7.57;1.70;;;;;;;;;;5006837;28;20029;-67
2023/05/17 04:32:00;;;;;;;6.23;1.83;;;;;;;;;;5006633;28;20531;-69
2023/05/17 04:34:26;;;;;;;8.75;1.83;;;;;;;;;;5008312;28;20084;-67
2023/05/17 04:36:51;;;;;;;8.55;1.70;;;;;;;;;;5007670;28;20033;-68
2023/05/17 04:39:17;;;;;;;6.13;1.70;;;;;;;;;;5008215;28;20537;-70
2023/05/17 04:41:42;;;;;;;8.37;2.23;;;;;;;;;;5009831;28;20079;-68
2023/05/17 04:44:07;;;;;;;6.40;1.65;;;;;;;;;;5008964;28;20025;-69
2023/05/17 04:46:32;;;;;;;10.93;1.70;;;;;;;;;;5009317;28;20108;-69
2023/05/17 04:48:57;;;;;;;5.88;1.52;;;;;;;;;;5007137;28;20508;-69
2023/05/17 04:51:23;;;;;;;10.03;1.70;;;;;;;;;;5008749;28;20140;-69
2023/05/17 04:53:48;;;;;;;5.43;1.60;;;;;;;;;;5005272;28;20568;-68
2023/05/17 04:56:13;;;;;;;8.23;1.80;;;;;;;;;;5004102;28;20014;-69
2023/05/17 04:58:38;;;;;;;6.50;1.83;;;;;;;;;;5010385;28;20038;-70
2023/05/17 05:01:04;;;;;;;9.30;1.70;;;;;;;;;;5010808;28;20033;-69
2023/05/17 05:03:29;;;;;;;6.28;1.92;;;;;;;;;;5026336;28;20399;-69
2023/05/17 05:05:54;;;;;;;7.73;1.80;;;;;;;;;;5019561;28;20079;-70
2023/05/17 05:08:20;;;;;;;7.17;1.80;;;;;;;;;;5011117;28;20034;-70
2023/05/17 05:10:45;;;;;;;7.60;1.83;;;;;;;;;;5009697;28;20520;-69
2023/05/17 05:13:10;;;;;;;7.37;1.80;;;;;;;;;;5010730;28;20470;-69
2023/05/17 05:15:36;;;;;;;8.13;1.60;;;;;;;;;;5010361;28;20048;-69
2023/05/17 05:18:01;;;;;;;9.23;2.05;;;;;;;;;;5010683;28;20502;-69
2023/05/17 05:20:26;;;;;;;8.20;1.88;;;;;;;;;;5010549;28;20386;-68
2023/05/17 05:22:51;;;;;;;11.63;2.75;;;;;;;;;;5007284;28;20061;-70
2023/05/17 05:25:17;;;;;;;8.90;2.13;;;;;;;;;;5006438;28;20030;-69
2023/05/17 05:27:42;;;;;;;8.90;2.40;;;;;;;;;;5009371;28;20455;-67
2023/05/17 05:30:07;;;;;;;9.50;1.92;;;;;;;;;;5006031;28;20080;-68
2023/05/17 05:32:32;;;;;;;10.13;2.08;;;;;;;;;;5009281;28;20091;-67
2023/05/17 05:34:58;;;;;;;8.47;2.37;;;;;;;;;;4999503;28;20037;-70
2023/05/17 05:37:23;;;;;;;8.23;2.17;;;;;;;;;;5006114;28;20036;-68
2023/05/17 05:39:48;;;;;;;9.87;2.80;;;;;;;;;;5007673;28;20026;-69
2023/05/17 05:42:14;;;;;;;10.00;2.40;;;;;;;;;;5001830;28;20109;-69
2023/05/17 05:44:39;;;;;;;10.93;2.67;;;;;;;;;;5003393;28;20037;-69
2023/05/17 05:47:04;;;;;;;8.30;2.30;;;;;;;;;;5009808;28;20017;-69
2023/05/17 05:49:29;;;;;;;8.93;2.73;;;;;;;;;;5009987;28;20452;-68
2023/05/17 05:51:54;;;;;;;8.23;2.17;;;;;;;;;;5008744;28;20354;-69
2023/05/17 05:54:19;;;;;;;11.60;2.77;;;;;;;;;;5010016;28;20021;-67
2023/05/17 05:56:45;;;;;;;12.77;2.80;;;;;;;;;;5010430;28;20038;-69
2023/05/17 05:59:10;;;;;;;8.80;2.45;;;;;;;;;;5008780;28;20022;-69
2023/05/17 06:01:36;;;;;;;13.33;2.50;;;;;;;;;;5006951;28;20137;-69
2023/05/17 06:04:01;;;;;;;14.27;2.50;;;;;;;;;;4997996;28;20627;-67
2023/05/17 06:06:26;;;;;;;9.43;2.87;;;;;;;;;;5005634;28;20629;-70
2023/05/17 06:08:51;;;;;;;12.48;3.25;;;;;;;;;;5008632;28;20033;-68
2023/05/17 06:11:17;;;;;;;10.43;2.73;;;;;;;;;;5009261;28;20476;-70
2023/05/17 06:13:42;;;;;;;10.13;2.65;;;;;;;;;;5009468;28;20022;-69
2023/05/17 06:16:07;;;;;;;13.30;2.70;;;;;;;;;;5009192;28;20034;-70
2023/05/17 06:18:32;;;;;;;12.10;3.00;;;;;;;;;;5007983;28;20082;-66
2023/05/17 06:20:58;;;;;;;8.68;2.60;;;;;;;;;;5008900;28;20034;-67
2023/05/17 06:23:23;;;;;;;9.90;2.40;;;;;;;;;;5009298;28;20130;-69
2023/05/17 06:25:48;;;;;;;13.47;3.07;;;;;;;;;;5008855;28;20026;-69
2023/05/17 06:28:13;;;;;;;8.50;2.77;;;;;;;;;;5008810;28;20029;-68
2023/05/17 06:30:38;;;;;;;9.53;2.90;;;;;;;;;;5007018;28;20480;-69
2023/05/17 06:33:03;;;;;;;9.30;2.40;;;;;;;;;;5002706;28;20018;-69
2023/05/17 06:35:29;;;;;;;11.77;2.77;;;;;;;;;;5008935;28;20030;-69
2023/05/17 06:37:54;;;;;;;13.50;2.70;;;;;;;;;;5008972;28;20018;-69
2023/05/17 06:40:19;;;;;;;10.95;2.70;;;;;;;;;;5008273;28;20057;-69
2023/05/17 06:42:44;;;;;;;9.87;2.77;;;;;;;;;;5004957;28;20024;-69
2023/05/17 06:45:10;;;;;;;10.57;2.97;;;;;;;;;;5002169;28;20033;-68
2023/05/17 06:47:35;;;;;;;10.60;2.50;;;;;;;;;;4994714;28;20033;-69
2023/05/17 06:50:00;;;;;;;11.57;2.73;;;;;;;;;;5002417;28;20052;-70
2023/05/17 06:52:25;;;;;;;10.60;2.40;;;;;;;;;;5006195;28;20022;-68
2023/05/17 06:54:51;;;;;;;10.77;2.70;;;;;;;;;;5006152;28;20014;-66
2023/05/17 06:57:16;;;;;;;10.93;3.00;;;;;;;;;;5017703;28;20022;-69
2023/05/17 06:59:41;;;;;;;8.63;2.45;;;;;;;;;;5021436;28;20026;-69
2023/05/17 07:02:06;;;;;;;12.65;2.85;;;;;;;;;;5006986;28;20041;-67
2023/05/17 07:04:32;;;;;;;10.15;3.03;;;;;;;;;;5009710;28;20529;-70
2023/05/17 07:06:57;;;;;;;9.60;2.40;;;;;;;;;;5011551;28;20033;-68
2023/05/17 07:09:22;;;;;;;10.23;2.70;;;;;;;;;;5011215;28;20517;-70
2023/05/17 07:11:47;;;;;;;10.18;2.45;;;;;;;;;;5009852;28;20045;-68
2023/05/17 07:14:12;;;;;;;11.17;2.87;;;;;;;;;;5011651;28;20022;-68
2023/05/17 07:16:38;;;;;;;13.00;3.00;;;;;;;;;;5012609;28;20485;-68
2023/05/17 07:19:03;;;;;;;14.07;2.93;;;;;;;;;;5009960;28;20033;-67
2023/05/17 07:21:28;;;;;;;11.13;2.90;;;;;;;;;;5010902;28;20022;-66
2023/05/17 07:23:53;;;;;;;10.90;2.53;;;;;;;;;;5011729;28;20440;-67
2023/05/17 07:26:19;;;;;;;11.75;2.88;;;;;;;;;;5011505;28;20100;-70
2023/05/17 07:28:44;;;;;;;7.07;2.53;;;;;;;;;;5010895;28;20052;-67
2023/05/17 07:31:10;;;;;;;7.63;2.37;;;;;;;;;;5010707;28;20022;-70
2023/05/17 07:33:35;;;;;;;8.60;2.90;;;;;;;;;;5009727;28;20029;-70
2023/05/17 07:36:01;;;;;;;11.27;3.13;;;;;;;;;;5011247;28;20496;-69
2023/05/17 07:38:26;;;;;;;9.10;2.50;;;;;;;;;;5007171;28;20105;-69
2023/05/17 07:40:51;;;;;;;12.75;2.85;;;;;;;;;;5007407;28;20026;-70
2023/05/17 07:43:16;;;;;;;9.43;2.42;;;;;;;;;;5011468;28;20024;-69
2023/05/17 07:45:44;;;;;;;9.35;2.58;;;;;;;;;;5011706;28;20044;-69
2023/05/17 07:48:09;;;;;;;7.88;2.65;;;;;;;;;;5011772;28;20032;-67
2023/05/17 07:50:35;;;;;;;9.50;3.00;;;;;;;;;;5011241;28;20026;-69
2023/05/17 07:53:00;;;;;;;9.40;2.83;;;;;;;;;;5010230;28;20060;-68
2023/05/17 07:55:25;;;;;;;11.57;2.90;;;;;;;;;;5008799;28;20030;-67
2023/05/17 07:57:51;;;;;;;10.07;3.15;;;;;;;;;;5006909;28;20474;-69
2023/05/17 08:00:18;;;;;;;10.88;2.33;;;;;;;;;;5009374;28;20041;-68
2023/05/17 08:02:43;;;;;;;10.32;2.45;;;;;;;;;;5009147;28;20034;-69
2023/05/17 08:05:08;;;;;;;12.43;2.80;;;;;;;;;;5011044;28;20512;-69
2023/05/17 08:07:34;;;;;;;11.82;2.90;;;;;;;;;;5010906;28;20497;-69
2023/05/17 08:09:59;;;;;;;10.55;2.55;;;;;;;;;;5009736;28;20026;-69
2023/05/17 08:12:24;;;;;;;11.40;2.53;;;;;;;;;;5010523;28;20076;-68
2023/05/17 08:14:49;;;;;;;8.83;2.60;;;;;;;;;;5011169;28;20021;-69
2023/05/17 08:17:14;;;;;;;10.60;2.60;;;;;;;;;;5011211;28;20022;-69
2023/05/17 08:19:40;;;;;;;9.73;2.33;;;;;;;;;;5011999;28;20068;-69
2023/05/17 08:22:05;;;;;;;10.45;2.50;;;;;;;;;;5010550;28;20108;-69
2023/05/17 08:24:30;;;;;;;9.48;2.72;;;;;;;;;;5011324;28;20040;-67
2023/05/17 08:26:55;;;;;;;11.63;2.47;;;;;;;;;;5012100;28;20026;-69
2023/05/17 08:29:21;;;;;;;9.32;2.20;;;;;;;;;;5011776;28;20108;-69
2023/05/17 08:31:46;;;;;;;10.82;2.67;;;;;;;;;;5010486;28;20026;-69
2023/05/17 08:34:11;;;;;;;11.67;2.40;;;;;;;;;;5010841;28;20077;-70
2023/05/17 08:36:36;;;;;;;6.72;2.05;;;;;;;;;;5002719;28;21353;-69
2023/05/17 08:39:02;;;;;;;10.05;2.08;;;;;;;;;;5008592;28;20668;-70
2023/05/17 08:41:28;;;;;;;9.05;2.30;;;;;;;;;;5012676;28;20049;-70
2023/05/17 08:43:54;;;;;;;11.50;2.27;;;;;;;;;;5014951;28;20113;-69
2023/05/17 08:46:20;;;;;;;8.63;1.90;;;;;;;;;;5014578;28;20390;-70
2023/05/17 08:48:46;;;;;;;9.18;2.08;;;;;;;;;;5014772;28;20014;-70
2023/05/17 08:51:12;;;;;;;;;;;;;;;;;;5014152;28;20022;-68
2023/05/17 08:53:37;;;;;;;9.80;1.80;;;;;;;;;;5013236;28;19912;-68
2023/05/17 08:56:03;;;;;;;8.23;2.15;;;;;;;;;;5014393;28;20025;-68
2023/05/17 08:58:32;;;;;;;9.80;1.90;;;;;;;;;;5014114;28;20026;-66
2023/05/17 09:00:58;;;;;;;9.60;1.90;;;;;;;;;;5013721;28;20026;-68
2023/05/17 09:03:24;;;;;;;9.98;2.03;;;;;;;;;;5016475;28;20025;-69
2023/05/17 09:05:49;;;;;;;10.18;2.10;;;;;;;;;;5018657;28;20386;-67
2023/05/17 09:08:14;;;;;;;8.95;2.13;;;;;;;;;;5013132;28;20041;-69
2023/05/17 09:10:40;;;;;;;9.43;1.83;;;;;;;;;;5013723;28;20116;-67
2023/05/17 09:13:05;;;;;;;9.40;2.00;;;;;;;;;;5013985;28;20021;-68
2023/05/17 09:15:32;;;;;;;9.93;2.90;;;;;;;;;;5014007;28;20029;-69
2023/05/17 09:17:58;;;;;;;8.98;2.35;;;;;;;;;;5005707;28;20034;-67
2023/05/17 09:20:23;;;;;;;10.52;2.08;;;;;;;;;;5005013;28;20031;-68
2023/05/17 09:22:49;;;;;;;10.70;2.17;;;;;;;;;;5003648;28;20033;-68
2023/05/17 09:25:18;;;;;;;8.77;2.10;;;;;;;;;;5012973;28;20024;-68
2023/05/17 09:27:43;;;;;;;10.18;2.28;;;;;;;;;;5013708;28;20030;-68
2023/05/17 09:30:09;;;;;;;9.47;2.20;;;;;;;;;;5013663;28;20037;-70
2023/05/17 09:32:34;;;;;;;9.25;2.53;;;;;;;;;;5013054;28;20061;-68
2023/05/17 09:35:01;;;;;;;9.95;2.20;;;;;;;;;;5014065;28;20025;-69
2023/05/17 09:37:26;;;;;;;9.15;2.50;;;;;;;;;;5012396;28;20022;-69
2023/05/17 09:39:53;;;;;;;8.25;2.17;;;;;;;;;;5012446;28;20033;-68
2023/05/17 09:42:25;;;;;;;8.45;2.30;;;;;;;;;;5012983;28;20037;-69
2023/05/17 09:44:52;;;;;;;9.45;2.20;;;;;;;;;;5013545;28;20026;-70
2023/05/17 09:47:21;;;;;;;8.70;2.10;;;;;;;;;;5013437;28;20374;-69
2023/05/17 09:49:46;;;;;;;7.57;2.40;;;;;;;;;;5013107;28;20084;-70
2023/05/17 09:52:15;;;;;;;8.85;2.60;;;;;;;;;;5011861;28;20026;-69
2023/05/17 09:54:40;;;;;;;12.52;2.53;;;;;;;;;;5009544;28;20049;-70
2023/05/17 09:57:08;;;;;;;7.78;2.00;;;;;;;;;;5007985;28;20557;-67
2023/05/17 09:59:34;;;;;;;12.27;2.72;;;;;;;;;;5006263;28;20490;-69
2023/05/17 10:02:00;;;;;;;9.60;2.40;;;;;;;;;;5012700;28;20117;-70
2023/05/17 10:04:27;;;;;;;9.93;2.33;;;;;;;;;;5011681;28;20037;-69
2023/05/17 10:06:52;;;;;;;7.20;1.80;;;;;;;;;;5013047;28;20030;-67
2023/05/17 10:09:19;;;;;;;7.70;2.03;;;;;;;;;;5012995;28;20037;-69
2023/05/17 10:11:45;;;;;;;11.90;2.65;;;;;;;;;;5011618;28;20089;-70
2023/05/17 10:14:21;;;;;;;8.40;1.88;;;;;;;;;;5012723;28;20061;-69
2023/05/17 10:16:47;;;;;;;9.65;2.47;;;;;;;;;;5012312;28;20529;-69
2023/05/17 10:19:12;;;;;;;9.15;1.92;;;;;;;;;;5010774;28;20105;-68
2023/05/17 10:21:38;;;;;;;8.50;2.30;;;;;;;;;;5012377;28;20121;-70
2023/05/17 10:24:04;;;;;;;8.70;2.33;;;;;;;;;;5013196;28;20026;-67
2023/05/17 10:26:29;;;;;;;13.73;2.50;;;;;;;;;;5012608;28;20026;-70
2023/05/17 10:29:01;;;;;;;8.82;2.10;;;;;;;;;;5012512;28;20033;-69
2023/05/17 10:31:32;;;;;;;9.48;2.50;;;;;;;;;;5012056;28;20097;-69
2023/05/17 10:33:57;;;;;;;9.50;1.95;;;;;;;;;;5012415;28;20022;-67
2023/05/17 10:36:23;;;;;;;9.88;2.13;;;;;;;;;;5012409;28;20026;-66
2023/05/17 10:38:48;;;;;;;11.43;2.20;;;;;;;;;;5012738;28;20478;-67
2023/05/17 10:41:15;;;;;;;9.93;2.10;;;;;;;;;;5012269;28;20032;-67
2023/05/17 10:43:40;;;;;;;10.02;2.15;;;;;;;;;;5012678;28;20037;-68
2023/05/17 10:46:10;;;;;;;9.93;2.38;;;;;;;;;;5011495;28;20072;-67
2023/05/17 10:48:36;;;;;;;9.90;2.33;;;;;;;;;;5012175;28;20022;-68
2023/05/17 10:51:06;;;;;;;8.38;1.90;;;;;;;;;;5011802;28;20481;-69
2023/05/17 10:53:31;;;;;;;9.25;1.77;;;;;;;;;;5011200;28;20048;-68
2023/05/17 10:55:57;;;;;;;10.67;2.00;;;;;;;;;;5011955;28;20057;-68
2023/05/17 10:58:24;;;;;;;9.52;2.15;;;;;;;;;;5011926;28;20378;-68
2023/05/17 11:00:52;;;;;;;8.25;1.98;;;;;;;;;;5011101;28;20378;-68
2023/05/17 11:03:18;;;;;;;8.90;1.90;;;;;;;;;;5009426;28;20105;-68
2023/05/17 11:06:04;;;;;;;10.52;2.00;;;;;;;;;;5008670;28;20044;-68
2023/05/17 11:08:29;;;;;;;11.75;2.08;;;;;;;;;;4999997;28;20053;-68
2023/05/17 11:11:16;;;;;;;9.83;2.73;;;;;;;;;;5005737;28;20500;-70
2023/05/17 11:13:51;;;;;;;8.35;2.08;;;;;;;;;;5009780;28;20091;-67
2023/05/17 11:16:16;;;;;;;10.15;1.80;;;;;;;;;;5011976;28;20072;-69
2023/05/17 11:18:45;;;;;;;10.52;1.75;;;;;;;;;;5011618;28;20421;-67
2023/05/17 11:21:12;;;;;;;9.77;2.47;;;;;;;;;;5010946;28;20490;-70
2023/05/17 11:23:37;;;;;;;6.72;1.73;;;;;;;;;;5010474;28;20375;-69
2023/05/17 11:26:22;;;;;;;9.55;1.73;;;;;;;;;;5009278;28;20029;-67
2023/05/17 11:28:55;;;;;;;8.32;1.85;;;;;;;;;;5008625;28;20041;-70
2023/05/17 11:31:27;;;;;;;8.75;2.17;;;;;;;;;;5005960;28;20032;-69
2023/05/17 11:33:52;;;;;;;7.88;1.80;;;;;;;;;;5011083;28;20547;-69
2023/05/17 11:36:19;;;;;;;7.47;1.70;;;;;;;;;;5011293;28;20025;-69
2023/05/17 11:38:47;;;;;;;11.50;2.17;;;;;;;;;;5011306;28;20366;-69
2023/05/17 11:41:17;;;;;;;8.40;1.90;;;;;;;;;;5010986;28;20068;-70
2023/05/17 11:43:44;;;;;;;8.77;1.70;;;;;;;;;;5010332;28;20109;-69
2023/05/17 11:46:17;;;;;;;8.07;2.00;;;;;;;;;;5010381;28;20029;-69
2023/05/17 11:48:42;;;;;;;8.10;1.67;;;;;;;;;;5010240;28;20432;-69
2023/05/17 11:51:08;;;;;;;11.47;2.00;;;;;;;;;;5010705;28;20022;-69
2023/05/17 11:53:34;;;;;;;10.85;1.60;;;;;;;;;;5011877;28;20018;-70
2023/05/17 11:56:02;;;;;;;8.32;1.75;;;;;;;;;;5007496;28;20034;-68
2023/05/17 11:58:28;;;;;;;8.27;1.83;;;;;;;;;;4996643;28;20030;-68
2023/05/17 12:00:54;;;;;;;8.10;1.95;;;;;;;;;;5003796;28;20142;-68
2023/05/17 12:03:23;;;;;;;9.88;1.65;;;;;;;;;;4995379;28;20049;-68
2023/05/17 12:05:49;;;;;;;8.35;1.63;;;;;;;;;;5005150;28;20061;-67
2023/05/17 12:08:15;;;;;;;6.55;1.50;;;;;;;;;;5010063;28;20087;-69
2023/05/17 12:10:44;;;;;;;9.20;1.90;;;;;;;;;;5008838;28;20446;-67
2023/05/17 12:13:10;;;;;;;8.30;2.00;;;;;;;;;;5003111;28;20026;-65
2023/05/17 12:15:36;;;;;;;8.97;1.80;;;;;;;;;;5011169;28;20105;-67
2023/05/17 12:18:01;;;;;;;9.88;1.75;;;;;;;;;;5012751;28;20101;-68
2023/05/17 12:20:27;;;;;;;13.88;1.30;;;;;;;;;;5017185;28;20049;-69
2023/05/17 12:22:53;;;;;;;7.82;1.48;;;;;;;;;;5017606;28;20073;-67
2023/05/17 12:25:19;;;;;;;7.63;1.40;;;;;;;;;;5016528;28;20025;-69
2023/05/17 12:27:44;;;;;;;9.68;1.63;;;;;;;;;;5014817;28;20085;-68
2023/05/17 12:30:14;;;;;;;8.05;1.63;;;;;;;;;;5015723;28;20018;-68
2023/05/17 12:32:39;;;;;;;7.35;1.60;;;;;;;;;;5015945;28;20040;-70
2023/05/17 12:35:04;;;;;;;9.33;1.40;;;;;;;;;;5015940;28;20034;-67
2023/05/17 12:37:30;;;;;;;6.82;1.52;;;;;;;;;;5017432;28;20021;-69
2023/05/17 12:39:56;;;;;;;6.57;1.50;;;;;;;;;;5014372;28;20064;-69
2023/05/17 12:42:21;;;;;;;7.22;1.52;;;;;;;;;;5016332;28;20026;-69
2023/05/17 12:44:48;;;;;;;6.93;1.33;;;;;;;;;;5016944;28;20046;-68
2023/05/17 12:47:13;;;;;;;7.05;1.70;;;;;;;;;;5017104;28;20414;-67
2023/05/17 12:49:38;;;;;;;6.10;1.27;;;;;;;;;;5017282;28;20073;-69
2023/05/17 12:52:04;;;;;;;7.82;1.40;;;;;;;;;;5016689;28;20037;-69
2023/05/17 12:54:30;;;;;;;8.85;1.60;;;;;;;;;;5016231;28;20141;-69
2023/05/17 12:56:55;;;;;;;6.85;1.48;;;;;;;;;;5016771;28;20022;-67
2023/05/17 12:59:23;;;;;;;6.55;1.50;;;;;;;;;;5017280;28;20034;-68
2023/05/17 13:01:54;;;;;;;11.57;1.75;;;;;;;;;;5016209;28;20033;-69
2023/05/17 13:04:20;;;;;;;8.10;1.67;;;;;;;;;;5019149;28;20110;-69
2023/05/17 13:06:46;;;;;;;5.97;1.27;;;;;;;;;;5019989;28;20057;-69
2023/05/17 13:09:12;;;;;;;7.55;1.42;;;;;;;;;;5019760;28;20022;-68
2023/05/17 13:11:40;;;;;;;6.57;1.60;;;;;;;;;;5018818;28;20021;-66
2023/05/17 13:14:09;;;;;;;6.53;1.48;;;;;;;;;;5017521;28;20030;-69
2023/05/17 13:16:38;;;;;;;7.47;1.42;;;;;;;;;;5016042;28;20070;-69
2023/05/17 13:19:10;;;;;;;8.88;1.42;;;;;;;;;;5015135;28;20469;-69
2023/05/17 13:21:35;;;;;;;9.05;1.60;;;;;;;;;;5009308;28;20021;-68
2023/05/17 13:24:01;;;;;;;7.82;1.48;;;;;;;;;;5016555;28;20018;-68
2023/05/17 13:26:26;;;;;;;6.10;1.52;;;;;;;;;;5015690;28;20137;-68
2023/05/17 13:28:51;;;;;;;6.05;1.52;;;;;;;;;;5012876;28;20029;-69
2023/05/17 13:31:16;;;;;;;8.33;1.70;;;;;;;;;;5012283;28;20107;-68
2023/05/17 13:33:41;;;;;;;7.47;1.63;;;;;;;;;;5013110;28;20033;-68
2023/05/17 13:36:06;;;;;;;6.65;1.40;;;;;;;;;;5013114;28;20024;-68
2023/05/17 13:38:32;;;;;;;7.03;1.60;;;;;;;;;;5013579;28;20029;-67
2023/05/17 13:40:57;;;;;;;7.30;1.40;;;;;;;;;;5012950;28;20551;-69
2023/05/17 13:43:22;;;;;;;6.30;1.50;;;;;;;;;;5012966;28;20014;-68
2023/05/17 13:45:53;;;;;;;8.75;1.60;;;;;;;;;;5012171;28;20440;-69
2023/05/17 13:48:18;;;;;;;5.22;1.42;;;;;;;;;;5013222;28;20014;-69
2023/05/17 13:50:43;;;;;;;8.30;1.92;;;;;;;;;;5012812;28;20028;-69
2023/05/17 13:53:08;;;;;;;8.50;1.42;;;;;;;;;;5013102;28;20109;-68
2023/05/17 13:55:33;;;;;;;7.05;1.83;;;;;;;;;;5013422;28;20034;-69
2023/05/17 13:57:58;;;;;;;9.93;1.53;;;;;;;;;;5012973;28;20493;-68
2023/05/17 14:00:24;;;;;;;10.67;1.80;;;;;;;;;;5011963;28;20515;-69
2023/05/17 14:02:49;;;;;;;5.97;1.60;;;;;;;;;;5012814;28;20065;-69
2023/05/17 14:05:14;;;;;;;8.75;1.50;;;;;;;;;;5013814;28;20045;-69
2023/05/17 14:07:41;;;;;;;7.93;1.60;;;;;;;;;;5014332;28;20374;-68
2023/05/17 14:10:11;;;;;;;9.90;1.70;;;;;;;;;;5014857;28;20057;-67
2023/05/17 14:12:37;;;;;;;6.80;1.83;;;;;;;;;;5013870;28;20105;-69
2023/05/17 14:15:02;;;;;;;8.88;1.50;;;;;;;;;;5013985;28;20084;-68
2023/05/17 14:17:27;;;;;;;4.83;1.40;;;;;;;;;;5011864;28;20034;-68
2023/05/17 14:19:52;;;;;;;8.20;1.55;;;;;;;;;;4993829;28;20472;-67
2023/05/17 14:22:17;;;;;;;8.50;1.52;;;;;;;;;;4992514;28;20025;-69
2023/05/17 14:24:43;;;;;;;6.90;1.45;;;;;;;;;;4993107;28;20031;-67
2023/05/17 14:27:08;;;;;;;10.32;1.60;;;;;;;;;;4992577;28;20467;-69
2023/05/17 14:29:33;;;;;;;11.90;1.33;;;;;;;;;;4998234;28;20030;-69
2023/05/17 14:31:58;;;;;;;7.47;1.38;;;;;;;;;;5011691;28;20104;-69
2023/05/17 14:34:23;;;;;;;8.02;1.80;;;;;;;;;;5011123;28;20512;-68